Time;durP1;ratioP1;P1;durP2;ratioP2;P2;SDS_P1;SDS_P2;PMS_P1;PMS_P2;Temp;Humidity;BMP_temperature;BMP_pressure;BME280_temperature;BME280_humidity;BME280_pressure;Samples;Min_cycle;Max_cycle;Signal;HPM_P1;HPM_P2
2021/08/28 00:00:39;;;;;;;8.85;7.30;;;;;;;21.65;58.50;99422.09;1716482;82;21041;-64
2021/08/28 00:03:06;;;;;;;8.33;7.03;;;;;;;21.64;58.70;99426.42;1717665;82;20998;-63
2021/08/28 00:05:33;;;;;;;8.75;7.17;;;;;;;21.62;58.86;99424.50;1723429;81;21140;-64
2021/08/28 00:07:59;;;;;;;7.92;7.15;;;;;;;21.62;58.94;99431.27;1706587;81;21033;-65
2021/08/28 00:10:26;;;;;;;9.20;8.23;;;;;;;21.61;58.96;99423.66;1726704;81;21517;-64
2021/08/28 00:12:52;;;;;;;10.38;8.05;;;;;;;21.60;59.08;99426.09;1731369;81;21174;-63
2021/08/28 00:15:19;;;;;;;7.80;7.00;;;;;;;21.61;59.12;99423.66;1729286;81;21056;-63
2021/08/28 00:17:47;;;;;;;7.70;6.92;;;;;;;21.60;59.18;99429.61;1726531;81;21536;-64
2021/08/28 00:20:15;;;;;;;7.80;6.75;;;;;;;21.59;59.26;99433.91;1725652;81;21057;-63
2021/08/28 00:22:42;;;;;;;7.20;6.50;;;;;;;21.58;59.43;99434.99;1747187;81;21049;-64
2021/08/28 00:25:09;;;;;;;7.55;6.85;;;;;;;21.55;59.56;99425.47;1745903;81;21014;-64
2021/08/28 00:27:36;;;;;;;7.95;7.25;;;;;;;21.55;59.67;99417.37;1726811;81;21037;-64
2021/08/28 00:30:06;;;;;;;7.53;6.90;;;;;;;21.56;59.74;99418.20;1726978;81;21037;-62
2021/08/28 00:32:32;;;;;;;7.87;7.08;;;;;;;21.55;59.79;99421.42;1726590;81;21084;-64
2021/08/28 00:34:59;;;;;;;7.78;7.08;;;;;;;21.53;59.81;99419.50;1726367;81;21554;-63
2021/08/28 00:37:25;;;;;;;7.30;6.58;;;;;;;21.52;59.81;99420.58;1720561;81;21541;-64
2021/08/28 00:39:52;;;;;;;8.00;7.20;;;;;;;21.49;59.87;99416.20;1716208;81;21022;-64
2021/08/28 00:42:18;;;;;;;9.40;7.42;;;;;;;21.47;59.96;99420.50;1716221;81;21120;-64
2021/08/28 00:44:44;;;;;;;7.37;6.45;;;;;;;21.48;60.14;99414.55;1727097;81;21493;-64
2021/08/28 00:47:16;;;;;;;7.67;6.85;;;;;;;21.47;60.26;99415.63;1707374;81;21112;-64
2021/08/28 00:49:49;;;;;;;7.25;6.55;;;;;;;21.47;60.53;99420.50;1750939;81;21025;-64
2021/08/28 00:52:17;;;;;;;8.35;7.20;;;;;;;21.47;60.53;99420.50;1745687;81;21041;-64
2021/08/28 00:54:47;;;;;;;8.70;6.90;;;;;;;21.47;60.47;99416.44;1729100;81;21041;-63
2021/08/28 00:57:13;;;;;;;8.90;7.90;;;;;;;21.48;60.46;99392.93;1727702;81;21057;-64
2021/08/28 00:59:41;;;;;;;7.70;7.00;;;;;;;21.47;60.41;99379.96;1693704;83;21105;-63
2021/08/28 01:02:08;;;;;;;9.30;7.92;;;;;;;21.48;60.33;99380.77;1748903;81;21034;-63
2021/08/28 01:04:49;;;;;;;9.23;7.85;;;;;;;21.49;60.00;99403.50;1725672;81;21573;-64
2021/08/28 01:07:20;;;;;;;7.85;7.15;;;;;;;21.50;59.68;99408.36;1736972;82;21119;-63
2021/08/28 01:09:52;;;;;;;8.93;8.03;;;;;;;21.49;59.33;99408.91;1683771;83;21533;-63
2021/08/28 01:12:27;;;;;;;8.45;7.65;;;;;;;21.47;59.35;99411.58;1682578;83;20998;-63
2021/08/28 01:15:07;;;;;;;8.95;8.05;;;;;;;21.47;59.37;99406.17;1723340;82;21212;-63
2021/08/28 01:17:35;;;;;;;8.83;7.95;;;;;;;21.46;59.33;99399.12;1721829;82;21061;-63
2021/08/28 01:20:32;;;;;;;8.20;7.42;;;;;;;21.45;59.17;99391.55;1714105;82;21119;-64
2021/08/28 01:23:16;;;;;;;9.40;6.97;;;;;;;21.45;58.91;99387.50;1711557;82;21593;-64
2021/08/28 01:25:53;;;;;;;9.43;8.45;;;;;;;21.42;58.63;99389.30;1706187;83;21039;-63
2021/08/28 01:28:23;;;;;;;10.98;8.13;;;;;;;21.43;58.25;99395.55;1702022;82;21061;-65
2021/08/28 01:30:50;;;;;;;8.28;7.45;;;;;;;21.40;57.95;99394.98;1718345;83;21081;-64
2021/08/28 01:33:18;;;;;;;8.95;8.15;;;;;;;21.40;57.80;99406.30;1667119;82;21518;-63
2021/08/28 01:35:44;;;;;;;8.60;7.20;;;;;;;21.39;57.78;99408.73;1664770;83;21085;-63
2021/08/28 01:38:13;;;;;;;9.15;8.25;;;;;;;21.38;57.77;99416.03;1721548;82;21107;-64
2021/08/28 01:40:42;;;;;;;7.90;7.08;;;;;;;21.38;57.83;99413.84;1718272;81;21029;-63
2021/08/28 01:43:09;;;;;;;8.33;7.53;;;;;;;21.38;57.86;99413.84;1717552;81;21129;-65
2021/08/28 01:45:36;;;;;;;9.95;7.95;;;;;;;21.39;57.75;99420.89;1718836;82;21147;-64
2021/08/28 01:48:03;;;;;;;8.70;7.60;;;;;;;21.38;57.64;99425.48;1717103;82;21009;-63
2021/08/28 01:50:30;;;;;;;8.70;7.80;;;;;;;21.39;57.47;99423.59;1718823;83;21073;-64
2021/08/28 01:52:58;;;;;;;8.40;7.40;;;;;;;21.39;57.31;99416.84;1716789;82;21090;-64
2021/08/28 01:55:27;;;;;;;8.15;7.35;;;;;;;21.39;57.10;99417.65;1717007;82;21074;-63
2021/08/28 01:57:58;;;;;;;8.05;7.05;;;;;;;21.39;56.94;99412.24;1719539;83;21797;-63
2021/08/28 02:00:36;;;;;;;8.60;7.50;;;;;;;21.37;56.81;99407.63;1692349;83;21078;-63
2021/08/28 02:03:03;;;;;;;7.72;6.95;;;;;;;21.35;56.80;99396.78;1711698;82;21120;-63
2021/08/28 02:05:32;;;;;;;6.87;6.25;;;;;;;21.34;56.75;99393.27;1724181;80;21033;-63
2021/08/28 02:08:03;;;;;;;7.17;6.47;;;;;;;21.34;56.81;99382.98;1726622;82;21002;-63
2021/08/28 02:10:51;;;;;;;7.47;5.92;;;;;;;21.33;56.70;99382.17;1727470;81;21090;-66
2021/08/28 02:13:33;;;;;;;8.45;6.65;;;;;;;21.33;56.62;99375.41;1718676;82;21081;-64
2021/08/28 02:16:11;;;;;;;7.17;6.47;;;;;;;21.33;56.51;99364.61;1727496;81;21045;-64
2021/08/28 02:18:52;;;;;;;7.45;6.75;;;;;;;21.34;56.41;99365.41;1714680;83;21052;-63
2021/08/28 02:21:21;;;;;;;7.75;6.30;;;;;;;21.33;56.29;99365.95;1735057;82;21056;-63
2021/08/28 02:23:53;;;;;;;9.03;5.92;;;;;;;21.33;56.27;99369.20;1679531;84;21981;-63
2021/08/28 02:26:22;;;;;;;7.50;5.87;;;;;;;21.34;56.28;99375.71;1713095;82;21530;-64
2021/08/28 02:29:02;;;;;;;7.10;5.72;;;;;;;21.34;56.25;99366.26;1684177;83;21035;-64
2021/08/28 02:31:41;;;;;;;6.65;6.05;;;;;;;21.35;56.23;99365.17;1709740;83;21032;-63
2021/08/28 02:34:09;;;;;;;7.28;6.58;;;;;;;21.35;56.22;99370.58;1699675;83;21055;-63
2021/08/28 02:36:38;;;;;;;7.03;6.33;;;;;;;21.35;56.16;99361.13;1702335;82;21115;-63
2021/08/28 02:39:05;;;;;;;7.40;6.62;;;;;;;21.34;56.07;99350.55;1697091;82;21041;-63
2021/08/28 02:41:31;;;;;;;6.28;5.67;;;;;;;21.33;56.07;99352.45;1696348;83;21057;-64
2021/08/28 02:43:58;;;;;;;6.00;5.50;;;;;;;21.33;56.12;99359.20;1726385;81;21034;-63
2021/08/28 02:46:26;;;;;;;6.40;5.80;;;;;;;21.34;56.07;99361.36;1723763;81;21023;-64
2021/08/28 02:48:56;;;;;;;7.05;5.83;;;;;;;21.35;56.12;99369.23;1731082;81;21787;-64
2021/08/28 02:51:23;;;;;;;6.40;5.80;;;;;;;21.34;56.13;99350.05;1725372;81;21019;-65
2021/08/28 02:53:53;;;;;;;6.78;5.95;;;;;;;21.35;56.06;99339.51;1696787;83;21545;-64
2021/08/28 02:56:23;;;;;;;7.03;6.08;;;;;;;21.37;55.94;99339.27;1726263;83;21105;-64
2021/08/28 02:58:50;;;;;;;6.03;5.42;;;;;;;21.36;55.92;99339.80;1676422;84;21085;-64
2021/08/28 03:01:17;;;;;;;8.75;6.20;;;;;;;21.36;55.94;99353.31;1727092;83;21494;-64
2021/08/28 03:03:44;;;;;;;6.35;5.75;;;;;;;21.37;55.92;99360.34;1693289;83;21053;-63
2021/08/28 03:06:11;;;;;;;7.67;6.67;;;;;;;21.37;55.97;99366.28;1733424;80;21013;-63
2021/08/28 03:08:41;;;;;;;6.10;5.50;;;;;;;21.37;56.09;99365.74;1767739;80;21635;-64
2021/08/28 03:11:08;;;;;;;7.08;5.70;;;;;;;21.36;56.16;99370.03;1761435;79;21124;-64
2021/08/28 03:13:34;;;;;;;9.25;6.30;;;;;;;21.36;56.24;99368.17;1767069;80;21129;-65
2021/08/28 03:16:04;;;;;;;7.05;5.45;;;;;;;21.36;56.40;99369.53;1766003;80;21517;-64
2021/08/28 03:18:34;;;;;;;6.08;5.40;;;;;;;21.36;56.58;99372.23;1772393;79;21005;-63
2021/08/28 03:21:01;;;;;;;6.60;5.92;;;;;;;21.36;56.75;99368.17;1767483;79;21150;-64
2021/08/28 03:23:30;;;;;;;5.80;5.30;;;;;;;21.34;57.00;99359.50;1778288;79;21048;-64
2021/08/28 03:25:58;;;;;;;7.17;5.85;;;;;;;21.32;57.32;99368.36;1796827;79;21879;-64
2021/08/28 03:28:25;;;;;;;5.58;5.08;;;;;;;21.30;57.51;99362.92;1774940;79;21045;-64
2021/08/28 03:30:51;;;;;;;6.12;5.37;;;;;;;21.30;57.69;99361.58;1770814;79;21021;-64
2021/08/28 03:33:19;;;;;;;6.03;5.42;;;;;;;21.29;57.88;99366.17;1755345;79;21132;-63
2021/08/28 03:35:49;;;;;;;10.18;5.62;;;;;;;21.27;58.06;99362.91;1753877;79;21100;-64
2021/08/28 03:38:16;;;;;;;7.05;5.42;;;;;;;21.26;58.22;99356.39;1759619;80;21074;-64
2021/08/28 03:40:44;;;;;;;5.67;5.17;;;;;;;21.26;58.35;99364.49;1780821;79;21149;-64
2021/08/28 03:43:11;;;;;;;5.53;4.90;;;;;;;21.26;58.41;99363.95;1765998;79;21041;-64
2021/08/28 03:45:37;;;;;;;5.05;4.65;;;;;;;21.26;58.41;99370.70;1757016;80;21088;-64
2021/08/28 03:48:04;;;;;;;5.17;4.42;;;;;;;21.26;58.40;99376.11;1762811;79;21057;-65
2021/08/28 03:50:32;;;;;;;5.70;5.20;;;;;;;21.27;58.36;99381.00;1757225;79;21087;-63
2021/08/28 03:53:01;;;;;;;5.20;4.70;;;;;;;21.27;58.30;99375.59;1763596;79;21509;-64
2021/08/28 03:55:27;;;;;;;5.62;5.12;;;;;;;21.27;58.20;99374.25;1757112;79;21049;-63
2021/08/28 03:57:55;;;;;;;7.92;4.85;;;;;;;21.24;58.12;99376.08;1759401;79;21166;-64
2021/08/28 04:00:22;;;;;;;6.20;4.80;;;;;;;21.23;58.10;99371.22;1776683;80;21010;-64
2021/08/28 04:02:50;;;;;;;6.85;4.78;;;;;;;21.20;58.08;99369.00;1769340;79;21081;-65
2021/08/28 04:05:19;;;;;;;6.97;5.47;;;;;;;21.17;58.15;99368.13;1762653;79;21047;-64
2021/08/28 04:07:46;;;;;;;6.70;4.72;;;;;;;21.14;58.15;99373.50;1775753;80;21111;-63
2021/08/28 04:11:10;;;;;;;6.15;4.92;;;;;;;21.18;58.30;99385.45;1861579;76;22453;-64
2021/08/28 04:13:39;;;;;;;6.22;5.62;;;;;;;21.15;58.36;99390.52;1820575;77;21008;-64
2021/08/28 04:16:07;;;;;;;5.33;4.58;;;;;;;21.18;58.49;99391.39;1823135;77;21120;-64
2021/08/28 04:18:39;;;;;;;6.65;5.90;;;;;;;21.17;58.52;99386.53;1818953;77;21006;-64
2021/08/28 04:21:08;;;;;;;6.35;5.75;;;;;;;21.19;58.65;99391.69;1813939;77;21592;-65
2021/08/28 04:23:45;;;;;;;7.72;5.97;;;;;;;21.20;58.74;99396.02;1823231;77;21521;-64
2021/08/28 04:26:13;;;;;;;5.10;4.70;;;;;;;21.19;58.86;99389.80;1780795;77;21014;-64
2021/08/28 04:28:40;;;;;;;5.28;4.85;;;;;;;21.20;58.90;99379.27;1811025;78;21154;-64
2021/08/28 04:31:07;;;;;;;5.47;4.97;;;;;;;21.21;58.88;99382.80;1817139;77;20886;-63
2021/08/28 04:33:33;;;;;;;5.22;4.72;;;;;;;21.21;58.79;99374.70;1823960;77;21025;-66
2021/08/28 04:36:00;;;;;;;4.83;4.42;;;;;;;21.21;58.72;99377.41;1822214;77;21178;-63
2021/08/28 04:38:27;;;;;;;5.30;4.80;;;;;;;21.22;58.63;99372.27;1821126;77;21037;-63
2021/08/28 04:40:54;;;;;;;8.28;5.28;;;;;;;21.20;58.61;99371.70;1813680;77;21133;-64
2021/08/28 04:43:22;;;;;;;6.20;4.58;;;;;;;21.21;58.51;99380.91;1820703;77;21091;-64
2021/08/28 04:45:56;;;;;;;6.95;4.35;;;;;;;21.23;58.39;99387.94;1801215;77;21053;-64
2021/08/28 04:48:27;;;;;;;6.00;4.67;;;;;;;21.21;58.33;99387.66;1782181;78;21013;-64
2021/08/28 04:50:53;;;;;;;4.90;4.33;;;;;;;21.20;58.36;99391.42;1813430;77;21565;-66
2021/08/28 04:53:21;;;;;;;5.47;4.90;;;;;;;21.20;58.45;99383.31;1796985;77;21133;-63
2021/08/28 04:55:48;;;;;;;5.45;4.65;;;;;;;21.19;58.56;99378.99;1815805;77;21017;-66
2021/08/28 04:58:15;;;;;;;5.72;4.87;;;;;;;21.20;58.65;99381.16;1820747;77;21139;-64
2021/08/28 05:00:44;;;;;;;5.50;4.90;;;;;;;21.20;58.71;99381.16;1837661;77;21025;-64
2021/08/28 05:03:18;;;;;;;4.90;4.50;;;;;;;21.20;58.83;99384.66;1801132;77;21457;-63
2021/08/28 05:05:45;;;;;;;7.20;5.05;;;;;;;21.21;58.84;99385.50;1822078;78;21123;-65
2021/08/28 05:08:12;;;;;;;6.10;5.17;;;;;;;21.22;58.89;99392.53;1821817;77;21115;-63
2021/08/28 05:10:39;;;;;;;5.83;5.22;;;;;;;21.23;58.86;99390.13;1825372;78;21108;-64
2021/08/28 05:13:07;;;;;;;7.75;5.00;;;;;;;21.23;58.76;99394.18;1826234;77;20986;-64
2021/08/28 05:15:35;;;;;;;7.67;4.78;;;;;;;21.22;58.70;99401.98;1825661;77;21101;-63
2021/08/28 05:18:04;;;;;;;6.22;4.97;;;;;;;21.20;58.78;99402.77;1813507;78;21174;-63
2021/08/28 05:20:31;;;;;;;7.25;4.92;;;;;;;21.21;58.83;99396.31;1814715;78;20993;-63
2021/08/28 05:23:16;;;;;;;7.22;4.90;;;;;;;21.21;58.83;99407.11;1810180;77;21090;-65
2021/08/28 05:25:50;;;;;;;9.05;5.58;;;;;;;21.20;58.84;99410.87;1771947;78;21034;-63
2021/08/28 05:28:16;;;;;;;5.60;4.78;;;;;;;21.19;58.79;99405.20;1808523;78;20978;-64
2021/08/28 05:30:43;;;;;;;5.60;4.72;;;;;;;21.18;58.72;99403.00;1825586;77;21141;-64
2021/08/28 05:33:11;;;;;;;6.40;5.28;;;;;;;21.20;58.72;99405.47;1825701;77;21053;-64
2021/08/28 05:35:38;;;;;;;5.42;4.92;;;;;;;21.19;58.59;99393.85;1825533;77;21061;-65
2021/08/28 05:38:09;;;;;;;6.12;5.33;;;;;;;21.20;58.46;99391.95;1763734;77;21272;-65
2021/08/28 05:40:37;;;;;;;5.35;4.62;;;;;;;21.19;58.35;99382.23;1826113;77;21033;-65
2021/08/28 05:43:04;;;;;;;6.35;5.25;;;;;;;21.17;58.23;99386.53;1825473;77;21075;-64
2021/08/28 05:45:35;;;;;;;5.78;5.28;;;;;;;21.16;58.17;99398.92;1763070;78;21045;-63
2021/08/28 05:48:03;;;;;;;5.12;4.62;;;;;;;21.16;58.15;99405.13;1820755;77;20993;-64
2021/08/28 05:50:30;;;;;;;5.30;4.45;;;;;;;21.18;58.02;99411.64;1821193;77;21032;-63
2021/08/28 05:52:56;;;;;;;5.42;4.62;;;;;;;21.19;57.83;99405.20;1803953;78;21053;-65
2021/08/28 05:55:24;;;;;;;5.85;4.92;;;;;;;21.20;57.74;99405.47;1817266;77;21130;-65
2021/08/28 05:57:50;;;;;;;5.87;4.55;;;;;;;21.19;57.67;99404.66;1821757;77;21038;-64
2021/08/28 06:00:17;;;;;;;5.72;4.40;;;;;;;21.20;57.68;99404.11;1804601;77;21075;-63
2021/08/28 06:02:45;;;;;;;7.40;4.95;;;;;;;21.21;57.44;99395.77;1818905;78;21064;-64
2021/08/28 06:05:13;;;;;;;6.45;4.97;;;;;;;21.21;57.41;99404.41;1822810;77;20994;-64
2021/08/28 06:07:44;;;;;;;6.33;4.87;;;;;;;21.21;57.21;99401.17;1817041;77;21109;-64
2021/08/28 06:10:28;;;;;;;6.08;5.47;;;;;;;21.20;57.10;99398.71;1717183;82;21066;-64
2021/08/28 06:13:06;;;;;;;7.65;5.83;;;;;;;21.20;57.10;99408.98;1719615;78;21560;-64
2021/08/28 06:15:34;;;;;;;6.50;5.53;;;;;;;21.21;57.10;99402.52;1799865;78;21592;-65
2021/08/28 06:18:02;;;;;;;6.05;5.00;;;;;;;21.21;57.01;99416.03;1766677;78;21018;-64
2021/08/28 06:20:29;;;;;;;6.67;5.53;;;;;;;21.21;56.97;99422.78;1797462;78;21047;-64
2021/08/28 06:22:55;;;;;;;7.58;5.53;;;;;;;21.21;56.94;99411.98;1786062;78;21483;-64
2021/08/28 06:25:24;;;;;;;7.45;5.72;;;;;;;21.23;56.94;99421.19;1780909;78;21077;-64
2021/08/28 06:27:51;;;;;;;7.00;5.47;;;;;;;21.24;56.97;99422.81;1785956;78;21056;-64
2021/08/28 06:30:18;;;;;;;7.95;6.37;;;;;;;21.25;57.05;99428.52;1748571;78;21501;-64
2021/08/28 06:32:45;;;;;;;8.75;6.35;;;;;;;21.27;57.12;99420.17;1780563;78;21073;-65
2021/08/28 06:35:12;;;;;;;7.95;6.10;;;;;;;21.28;57.22;99427.20;1781157;78;21036;-64
2021/08/28 06:37:41;;;;;;;7.25;5.97;;;;;;;21.27;57.34;99419.63;1788801;78;21687;-64
2021/08/28 06:40:21;;;;;;;6.55;5.85;;;;;;;21.29;57.44;99416.15;1773850;78;21021;-63
2021/08/28 06:43:06;;;;;;;7.92;6.25;;;;;;;21.30;57.61;99418.31;1777581;78;21053;-65
2021/08/28 06:45:52;;;;;;;7.60;6.05;;;;;;;21.30;57.76;99427.23;1779986;78;21926;-64
2021/08/28 06:48:37;;;;;;;6.87;6.10;;;;;;;21.30;57.87;99425.06;1785586;78;21563;-65
2021/08/28 06:51:22;;;;;;;7.30;6.22;;;;;;;21.30;57.98;99430.47;1779993;78;21123;-64
2021/08/28 06:54:07;;;;;;;7.35;6.15;;;;;;;21.30;58.02;99438.03;1762824;79;21084;-65
2021/08/28 06:56:52;;;;;;;8.38;6.60;;;;;;;21.30;58.14;99450.19;1769218;78;21073;-64
2021/08/28 06:59:37;;;;;;;9.33;6.45;;;;;;;21.31;58.16;99436.98;1784142;78;21851;-64
2021/08/28 07:02:09;;;;;;;7.35;6.30;;;;;;;21.33;58.26;99440.80;1765386;79;21524;-64
2021/08/28 07:04:37;;;;;;;7.28;5.87;;;;;;;21.34;58.40;99432.96;1770952;78;21027;-64
2021/08/28 07:07:08;;;;;;;8.90;5.90;;;;;;;21.36;58.62;99449.73;1785577;78;21033;-64
2021/08/28 07:09:35;;;;;;;8.28;5.92;;;;;;;21.40;58.72;99455.77;1782359;78;21100;-64
2021/08/28 07:12:03;;;;;;;6.20;5.60;;;;;;;21.43;58.73;99465.27;1800417;77;21777;-64
2021/08/28 07:14:30;;;;;;;8.23;6.20;;;;;;;21.44;58.73;99464.75;1821067;77;20989;-63
2021/08/28 07:16:57;;;;;;;8.08;6.33;;;;;;;21.44;58.68;99478.27;1819573;77;21025;-64
2021/08/28 07:19:24;;;;;;;6.22;5.62;;;;;;;21.45;58.68;99467.22;1819997;77;21060;-63
2021/08/28 07:21:50;;;;;;;6.47;5.87;;;;;;;21.46;58.74;99470.73;1818271;77;21461;-65
2021/08/28 07:24:18;;;;;;;7.15;6.17;;;;;;;21.45;58.73;99463.16;1821122;77;21123;-65
2021/08/28 07:26:47;;;;;;;7.83;6.35;;;;;;;21.46;58.71;99471.57;1822726;77;21033;-65
2021/08/28 07:29:19;;;;;;;6.28;5.67;;;;;;;21.47;58.66;99476.44;1780823;77;20998;-63
2021/08/28 07:31:46;;;;;;;7.80;5.62;;;;;;;21.46;58.60;99477.48;1816523;77;20990;-63
2021/08/28 07:34:12;;;;;;;5.53;4.60;;;;;;;21.47;58.38;99471.03;1822839;77;21083;-64
2021/08/28 07:36:39;;;;;;;7.22;4.30;;;;;;;21.47;58.19;99483.19;1820229;77;21128;-63
2021/08/28 07:39:06;;;;;;;5.75;4.33;;;;;;;21.49;58.06;99481.87;1804631;78;21268;-63
2021/08/28 07:41:33;;;;;;;4.67;4.28;;;;;;;21.51;57.70;99484.33;1822308;78;21717;-64
2021/08/28 07:44:00;;;;;;;4.95;4.03;;;;;;;21.51;57.27;99485.14;1821376;77;21009;-64
2021/08/28 07:46:27;;;;;;;14.07;10.58;;;;;;;21.53;56.95;99481.66;1821434;77;21083;-65
2021/08/28 07:49:01;;;;;;;9.80;8.20;;;;;;;21.55;56.75;99488.98;1813771;78;21146;-63
2021/08/28 07:51:30;;;;;;;6.78;4.78;;;;;;;21.51;56.35;99498.66;1818409;77;21036;-63
2021/08/28 07:53:56;;;;;;;4.17;3.77;;;;;;;21.57;55.79;99502.26;1786930;78;21046;-64
2021/08/28 07:56:22;;;;;;;3.67;3.37;;;;;;;21.58;55.41;99487.16;1816381;77;21005;-65
2021/08/28 07:58:49;;;;;;;3.85;3.50;;;;;;;21.59;55.32;99504.18;1818729;77;21064;-64
2021/08/28 08:01:16;;;;;;;5.25;4.37;;;;;;;21.59;55.18;99498.27;1824163;77;21178;-65
2021/08/28 08:03:46;;;;;;;4.40;4.00;;;;;;;21.63;55.81;99497.75;1824837;77;21081;-68
2021/08/28 08:06:17;;;;;;;4.30;3.90;;;;;;;21.67;56.47;99494.84;1824383;77;21036;-69
2021/08/28 08:09:03;;;;;;;5.78;3.98;;;;;;;21.74;56.33;99513.88;1824494;77;21074;-70
2021/08/28 08:11:48;;;;;;;5.22;3.75;;;;;;;21.82;56.17;99509.13;1819919;77;21056;-67
2021/08/28 08:14:19;;;;;;;3.85;3.20;;;;;;;21.87;55.94;99505.97;1780473;79;21133;-66
2021/08/28 08:16:48;;;;;;;3.62;3.12;;;;;;;21.93;54.95;99504.16;1799780;77;21591;-65
2021/08/28 08:19:16;;;;;;;3.67;3.00;;;;;;;21.96;54.35;99511.25;1805526;77;21414;-67
2021/08/28 08:22:02;;;;;;;3.47;2.75;;;;;;;21.99;54.04;99503.16;1803792;77;21033;-66
2021/08/28 08:24:39;;;;;;;5.45;2.83;;;;;;;22.00;54.06;99510.22;1796945;78;21107;-68
2021/08/28 08:27:25;;;;;;;4.25;3.67;;;;;;;21.99;54.16;99504.52;1808909;77;21124;-66
2021/08/28 08:30:04;;;;;;;7.80;6.83;;;;;;;21.98;54.18;99509.62;1670660;83;21593;-65
2021/08/28 08:32:47;;;;;;;6.08;4.50;;;;;;;21.97;54.33;99521.53;1811270;77;21056;-67
2021/08/28 08:35:14;;;;;;;4.20;3.70;;;;;;;21.97;54.31;99516.11;1812584;77;21025;-67
2021/08/28 08:37:42;;;;;;;3.85;3.30;;;;;;;21.98;54.33;99530.75;1806611;77;21528;-68
2021/08/28 08:40:10;;;;;;;5.45;3.20;;;;;;;21.99;54.16;99531.02;1800946;78;21085;-66
2021/08/28 08:42:38;;;;;;;6.33;3.30;;;;;;;22.01;53.94;99529.97;1818138;77;21029;-67
2021/08/28 08:45:06;;;;;;;4.75;2.95;;;;;;;22.01;53.76;99530.77;1778546;79;21049;-66
2021/08/28 08:47:35;;;;;;;4.80;2.72;;;;;;;21.99;53.75;99545.89;1818190;77;21072;-68
2021/08/28 08:50:02;;;;;;;3.67;2.75;;;;;;;21.98;53.88;99536.67;1815650;78;21131;-66
2021/08/28 08:52:31;;;;;;;2.92;2.70;;;;;;;21.96;53.81;99540.16;1796090;78;21110;-67
2021/08/28 08:54:59;;;;;;;4.22;2.70;;;;;;;21.92;53.90;99562.00;1813825;77;21052;-66
2021/08/28 08:57:26;;;;;;;2.45;2.25;;;;;;;21.91;53.83;99546.86;1820224;77;21020;-68
2021/08/28 08:59:52;;;;;;;2.80;2.60;;;;;;;21.90;53.88;99552.78;1816801;77;21493;-66
2021/08/28 09:02:19;;;;;;;2.35;2.15;;;;;;;21.91;53.80;99549.56;1815288;77;20994;-67
2021/08/28 09:05:05;;;;;;;5.10;2.15;;;;;;;21.92;53.75;99564.20;1819927;77;21829;-65
2021/08/28 09:07:31;;;;;;;2.65;2.30;;;;;;;21.91;53.89;99558.49;1814628;77;21014;-67
2021/08/28 09:09:58;;;;;;;2.42;2.22;;;;;;;21.91;54.00;99565.80;1818496;77;21092;-66
2021/08/28 09:12:40;;;;;;;4.08;2.40;;;;;;;21.93;53.79;99562.30;1817402;77;21072;-67
2021/08/28 09:15:08;;;;;;;2.98;2.60;;;;;;;21.92;53.84;99568.77;1821029;77;21028;-65
2021/08/28 09:17:35;;;;;;;2.87;2.27;;;;;;;21.93;53.99;99573.13;1821305;77;21184;-66
2021/08/28 09:20:02;;;;;;;3.20;2.15;;;;;;;21.94;53.98;99581.50;1820734;77;21544;-67
2021/08/28 09:22:32;;;;;;;2.72;2.12;;;;;;;21.96;53.49;99580.72;1820660;77;20990;-66
2021/08/28 09:25:04;;;;;;;2.17;1.98;;;;;;;21.96;53.16;99592.38;1817610;77;21067;-66
2021/08/28 09:27:50;;;;;;;2.62;2.40;;;;;;;21.96;52.96;99583.42;1815053;77;21048;-66
2021/08/28 09:30:25;;;;;;;3.20;2.08;;;;;;;21.96;53.01;99582.08;1820357;77;21776;-67
2021/08/28 09:32:57;;;;;;;2.35;2.15;;;;;;;21.95;53.05;99580.45;1820245;77;21490;-67
2021/08/28 09:35:29;;;;;;;2.25;1.87;;;;;;;21.97;53.08;99585.08;1817111;78;25016;-67
2021/08/28 09:38:07;;;;;;;2.50;2.20;;;;;;;22.01;53.19;99589.47;1813804;77;21084;-66
2021/08/28 09:40:38;;;;;;;2.67;2.00;;;;;;;22.03;53.24;99592.20;1820569;77;21577;-67
2021/08/28 09:43:14;;;;;;;2.50;2.30;;;;;;;22.05;53.23;99594.12;1817633;77;20994;-67
2021/08/28 09:45:40;;;;;;;3.80;2.35;;;;;;;22.09;53.18;99589.05;1826186;77;20990;-67
2021/08/28 09:48:08;;;;;;;2.08;1.70;;;;;;;22.11;53.02;99593.12;1818513;77;21477;-67
2021/08/28 09:50:41;;;;;;;2.77;1.98;;;;;;;22.14;52.68;99593.19;1820200;77;21012;-66
2021/08/28 09:53:15;;;;;;;2.92;2.10;;;;;;;22.15;52.59;99613.20;1832134;77;21045;-66
2021/08/28 09:55:42;;;;;;;1.90;1.80;;;;;;;22.16;52.29;99603.23;1810075;77;21026;-67
2021/08/28 09:58:09;;;;;;;2.08;1.87;;;;;;;22.15;52.29;99611.85;1826989;77;20962;-67
2021/08/28 10:00:42;;;;;;;1.77;1.67;;;;;;;22.15;51.79;99605.09;1817710;77;20990;-67
2021/08/28 10:03:08;;;;;;;2.58;2.10;;;;;;;22.14;51.94;99606.17;1800053;77;20982;-66
2021/08/28 10:05:37;;;;;;;2.67;2.47;;;;;;;22.18;51.81;99604.61;1838838;77;21592;-66
2021/08/28 10:08:06;;;;;;;2.58;1.70;;;;;;;22.21;51.56;99605.17;1819971;77;21129;-66
2021/08/28 10:10:36;;;;;;;2.37;1.82;;;;;;;22.23;51.37;99615.22;1819591;77;21073;-66
2021/08/28 10:13:04;;;;;;;2.10;1.90;;;;;;;22.25;51.08;99609.89;1819495;78;21488;-67
2021/08/28 10:15:33;;;;;;;1.80;1.70;;;;;;;22.27;50.87;99609.63;1835329;77;21037;-66
2021/08/28 10:18:00;;;;;;;2.50;2.12;;;;;;;22.30;50.76;99605.89;1819525;77;21013;-68
2021/08/28 10:20:28;;;;;;;2.10;1.90;;;;;;;22.38;50.59;99603.30;1818753;77;21802;-67
2021/08/28 10:22:57;;;;;;;4.95;2.10;;;;;;;22.46;50.38;99600.69;1826551;77;21005;-67
2021/08/28 10:25:26;;;;;;;2.30;1.80;;;;;;;22.53;50.31;99605.40;1792657;78;21037;-66
2021/08/28 10:27:54;;;;;;;2.85;1.85;;;;;;;22.62;50.19;99605.26;1819602;77;21034;-66
2021/08/28 10:30:22;;;;;;;2.95;1.90;;;;;;;22.73;50.04;99611.61;1819869;78;21002;-66
2021/08/28 10:32:49;;;;;;;2.52;2.33;;;;;;;22.83;49.65;99603.63;1816470;77;21169;-65
2021/08/28 10:35:17;;;;;;;2.12;1.82;;;;;;;22.95;49.48;99608.38;1817681;77;21037;-66
2021/08/28 10:37:43;;;;;;;2.15;1.95;;;;;;;23.07;49.47;99600.13;1817172;78;21064;-66
2021/08/28 10:40:14;;;;;;;2.05;1.82;;;;;;;23.20;49.28;99617.06;1830009;77;21056;-66
2021/08/28 10:42:41;;;;;;;2.10;1.92;;;;;;;23.31;49.04;99612.03;1828784;77;21013;-67
2021/08/28 10:45:10;;;;;;;2.12;1.92;;;;;;;23.44;48.90;99623.02;1820561;78;21798;-66
2021/08/28 10:47:38;;;;;;;2.50;2.30;;;;;;;23.55;48.60;99625.56;1821144;77;21520;-66
2021/08/28 10:50:09;;;;;;;2.30;2.10;;;;;;;23.66;48.37;99622.42;1833061;77;20999;-67
2021/08/28 10:52:38;;;;;;;3.95;1.90;;;;;;;23.76;48.14;99618.98;1803424;77;21091;-66
2021/08/28 10:55:12;;;;;;;2.60;1.90;;;;;;;23.88;47.85;99617.48;1813581;77;21072;-66
2021/08/28 10:57:39;;;;;;;2.08;1.92;;;;;;;23.98;47.59;99632.48;1807673;77;21624;-65
2021/08/28 11:00:12;;;;;;;1.95;1.70;;;;;;;24.09;47.16;99624.70;1821095;77;21045;-67
2021/08/28 11:02:56;;;;;;;2.47;2.27;;;;;;;24.20;46.96;99615.27;1832745;77;21013;-67
2021/08/28 11:05:28;;;;;;;;;;;;;;;24.29;46.78;99626.73;1822802;77;20978;-66
2021/08/28 11:08:16;;;;;;;2.27;2.08;;;;;;;24.41;46.65;99626.52;1820429;77;20151;-66
2021/08/28 11:10:43;;;;;;;2.00;1.80;;;;;;;24.49;46.42;99620.63;1820011;77;21823;-65
2021/08/28 11:13:10;;;;;;;2.80;2.35;;;;;;;24.63;46.24;99626.97;1825108;77;21068;-67
2021/08/28 11:15:38;;;;;;;3.15;2.10;;;;;;;24.76;46.17;99647.39;1802139;78;21021;-65
2021/08/28 11:18:15;;;;;;;1.98;1.87;;;;;;;24.88;45.60;99636.59;1806593;77;21071;-66
2021/08/28 11:20:51;;;;;;;2.10;1.70;;;;;;;25.01;45.26;99627.66;1825111;77;21001;-66
2021/08/28 11:23:20;;;;;;;2.17;1.95;;;;;;;25.15;45.15;99634.77;1804225;78;21063;-67
2021/08/28 11:25:51;;;;;;;2.80;2.20;;;;;;;25.26;44.73;99630.48;1826010;77;21124;-68
2021/08/28 11:28:21;;;;;;;5.58;2.08;;;;;;;25.37;44.60;99625.90;1825861;77;21520;-65
2021/08/28 11:30:52;;;;;;;1.92;1.80;;;;;;;25.49;44.54;99627.81;1825609;77;21053;-67
2021/08/28 11:33:30;;;;;;;2.10;1.90;;;;;;;25.60;44.11;99624.58;1825800;77;21010;-66
2021/08/28 11:36:06;;;;;;;2.62;1.70;;;;;;;25.74;43.93;99636.29;1804807;77;21303;-68
2021/08/28 11:38:50;;;;;;;2.08;1.55;;;;;;;25.84;43.28;99615.88;1823388;77;21016;-67
2021/08/28 11:41:20;;;;;;;4.03;1.60;;;;;;;25.96;43.05;99629.23;1818932;77;21045;-67
2021/08/28 11:43:46;;;;;;;1.85;1.70;;;;;;;26.08;42.94;99618.91;1822026;78;21033;-66
2021/08/28 11:46:16;;;;;;;1.70;1.60;;;;;;;26.19;42.46;99616.97;1825613;77;21057;-66
2021/08/28 11:48:45;;;;;;;1.67;1.57;;;;;;;26.32;42.39;99631.38;1809923;77;21106;-66